Time;durP1;ratioP1;P1;durP2;ratioP2;P2;SDS_P1;SDS_P2;PMS_P1;PMS_P2;Temp;Humidity;BMP_temperature;BMP_pressure;BME280_temperature;BME280_humidity;BME280_pressure;Samples;Min_cycle;Max_cycle;Signal;HPM_P1;HPM_P2
2022/07/19 00:00:37;;;;;;;20.17;14.15;;;19.70;99.90;;;;;;5066208;28;20090;-66
2022/07/19 00:03:03;;;;;;;21.13;12.25;;;19.70;99.90;;;;;;5068386;28;20510;-67
2022/07/19 00:05:29;;;;;;;19.17;10.90;;;19.70;99.90;;;;;;5069419;28;20067;-69
2022/07/19 00:07:55;;;;;;;15.73;9.00;;;19.60;99.90;;;;;;5069106;28;20076;-67
2022/07/19 00:10:21;;;;;;;11.05;7.25;;;19.60;99.90;;;;;;5066681;28;20076;-67
2022/07/19 00:12:48;;;;;;;12.20;7.80;;;19.60;99.90;;;;;;5068714;28;20044;-66
2022/07/19 00:15:15;;;;;;;13.77;7.22;;;19.50;99.90;;;;;;5070549;28;20033;-67
2022/07/19 00:17:45;;;;;;;13.95;8.20;;;19.50;99.90;;;;;;5046630;28;20380;-68
2022/07/19 00:20:12;;;;;;;15.50;7.30;;;19.50;99.90;;;;;;5068975;28;20562;-67
2022/07/19 00:22:38;;;;;;;12.65;7.70;;;19.50;99.90;;;;;;5064186;28;20040;-66
2022/07/19 00:25:04;;;;;;;11.82;7.10;;;19.40;99.90;;;;;;5062328;28;20048;-66
2022/07/19 00:27:30;;;;;;;13.55;8.00;;;19.50;99.90;;;;;;5050482;28;20525;-66
2022/07/19 00:29:55;;;;;;;10.45;6.97;;;19.40;99.90;;;;;;5068891;28;20114;-67
2022/07/19 00:32:22;;;;;;;13.82;6.90;;;19.40;99.90;;;;;;5068853;28;20047;-67
2022/07/19 00:34:48;;;;;;;13.70;7.60;;;19.40;99.90;;;;;;5064248;28;20123;-67
2022/07/19 00:37:13;;;;;;;13.23;8.25;;;19.30;99.90;;;;;;5057020;28;20586;-67
2022/07/19 00:39:39;;;;;;;14.52;7.93;;;19.40;99.90;;;;;;5068357;28;20141;-67
2022/07/19 00:42:08;;;;;;;13.77;7.70;;;19.30;99.90;;;;;;5062872;28;20045;-69
2022/07/19 00:44:34;;;;;;;16.45;8.38;;;19.30;99.90;;;;;;5071540;28;20037;-68
2022/07/19 00:47:00;;;;;;;12.65;7.30;;;19.20;99.90;;;;;;5067804;28;20181;-67
2022/07/19 00:49:26;;;;;;;12.77;7.53;;;19.20;99.90;;;;;;5063698;28;20127;-67
2022/07/19 00:51:53;;;;;;;12.45;7.20;;;19.20;99.90;;;;;;5050953;28;20472;-68
2022/07/19 00:54:19;;;;;;;14.95;7.40;;;19.20;99.90;;;;;;5068246;28;20041;-67
2022/07/19 00:56:49;;;;;;;18.67;7.43;;;19.20;99.90;;;;;;5065023;28;20051;-67
2022/07/19 00:59:14;;;;;;;14.60;7.75;;;19.10;99.90;;;;;;5071458;28;20051;-68
2022/07/19 01:01:40;;;;;;;13.85;7.57;;;19.10;99.90;;;;;;5073000;28;20040;-68
2022/07/19 01:04:06;;;;;;;16.42;7.85;;;19.10;99.90;;;;;;5065683;28;20045;-67
2022/07/19 01:06:32;;;;;;;13.30;7.07;;;19.10;99.90;;;;;;5068532;28;20044;-67
2022/07/19 01:08:58;;;;;;;12.02;7.78;;;19.00;99.90;;;;;;5069132;28;20057;-66
2022/07/19 01:11:23;;;;;;;11.18;6.43;;;19.00;99.90;;;;;;5065032;28;20049;-67
2022/07/19 01:13:49;;;;;;;13.38;7.95;;;19.00;99.90;;;;;;5072485;28;20043;-67
2022/07/19 01:16:16;;;;;;;14.18;7.13;;;18.90;99.90;;;;;;5067633;28;20402;-67
2022/07/19 01:18:42;;;;;;;16.40;7.88;;;18.90;99.90;;;;;;5059260;28;20116;-68
2022/07/19 01:21:16;;;;;;;15.60;8.57;;;18.90;99.90;;;;;;5066776;28;20044;-66
2022/07/19 01:23:42;;;;;;;14.32;8.10;;;18.90;99.90;;;;;;5041012;28;20128;-68
2022/07/19 01:26:08;;;;;;;14.30;7.65;;;18.90;99.90;;;;;;5063027;28;20132;-68
2022/07/19 01:28:34;;;;;;;15.95;7.28;;;18.90;99.90;;;;;;5070779;28;20082;-67
2022/07/19 01:31:00;;;;;;;12.82;7.63;;;18.80;99.90;;;;;;5066810;28;20044;-66
2022/07/19 01:33:26;;;;;;;11.05;7.55;;;18.80;99.90;;;;;;5056478;28;20048;-67
2022/07/19 01:35:52;;;;;;;15.18;8.18;;;18.80;99.90;;;;;;5058826;28;20045;-66
2022/07/19 01:38:17;;;;;;;11.18;8.10;;;18.80;99.90;;;;;;5064251;28;20070;-67
2022/07/19 01:40:43;;;;;;;13.25;7.80;;;18.70;99.90;;;;;;5057999;28;20394;-66
2022/07/19 01:43:11;;;;;;;15.00;7.93;;;18.70;99.90;;;;;;5068018;28;20044;-67
2022/07/19 01:45:37;;;;;;;16.15;7.32;;;18.70;99.90;;;;;;5068733;28;20083;-67
2022/07/19 01:48:03;;;;;;;21.15;8.18;;;18.70;99.90;;;;;;5058682;28;20457;-67
2022/07/19 01:50:29;;;;;;;18.02;8.40;;;18.70;99.90;;;;;;5048105;28;20052;-68
2022/07/19 01:52:55;;;;;;;13.57;8.35;;;18.60;99.90;;;;;;5061127;28;20055;-67
2022/07/19 01:55:21;;;;;;;12.25;8.40;;;18.60;99.90;;;;;;5063673;28;20140;-66
2022/07/19 01:57:50;;;;;;;14.95;8.20;;;18.60;99.90;;;;;;5068188;28;20554;-68
2022/07/19 02:00:16;;;;;;;16.80;8.77;;;18.60;99.90;;;;;;5062736;28;20490;-66
2022/07/19 02:02:42;;;;;;;15.63;8.82;;;18.60;99.90;;;;;;5063475;28;20037;-66
2022/07/19 02:05:08;;;;;;;16.10;8.80;;;18.60;99.90;;;;;;5059651;28;20465;-67
2022/07/19 02:07:34;;;;;;;11.57;8.07;;;18.50;99.90;;;;;;5067269;28;20040;-67
2022/07/19 02:10:00;;;;;;;10.10;7.68;;;18.50;99.90;;;;;;5064259;28;20538;-67
2022/07/19 02:12:26;;;;;;;14.20;8.20;;;18.50;99.90;;;;;;5066454;28;20132;-65
2022/07/19 02:14:52;;;;;;;11.18;6.95;;;18.50;99.90;;;;;;5063820;28;20402;-67
2022/07/19 02:17:20;;;;;;;12.93;8.25;;;18.40;99.90;;;;;;5068129;28;20041;-68
2022/07/19 02:19:46;;;;;;;11.40;7.13;;;18.40;99.90;;;;;;5065863;28;20525;-67
2022/07/19 02:22:12;;;;;;;12.75;7.72;;;18.40;99.90;;;;;;5065074;28;20045;-66
2022/07/19 02:24:39;;;;;;;12.55;8.20;;;18.40;99.90;;;;;;5053799;28;20506;-67
2022/07/19 02:27:05;;;;;;;10.65;7.15;;;18.40;99.90;;;;;;5070266;28;20410;-69
2022/07/19 02:29:30;;;;;;;12.18;7.38;;;18.40;99.90;;;;;;5061876;28;20037;-67
2022/07/19 02:31:56;;;;;;;12.40;8.23;;;18.40;99.90;;;;;;5064492;28;20033;-66
2022/07/19 02:34:22;;;;;;;13.30;7.68;;;18.40;99.90;;;;;;5066553;28;20506;-66
2022/07/19 02:36:47;;;;;;;13.00;7.28;;;18.30;99.90;;;;;;5070373;28;20391;-67
2022/07/19 02:39:13;;;;;;;12.73;7.63;;;18.30;99.90;;;;;;5066967;28;20047;-67
2022/07/19 02:41:39;;;;;;;18.67;7.68;;;18.30;99.90;;;;;;5070453;28;20053;-67
2022/07/19 02:44:05;;;;;;;13.45;7.20;;;18.30;99.90;;;;;;5067427;28;20134;-67
2022/07/19 02:46:31;;;;;;;13.45;7.50;;;18.30;99.90;;;;;;5057308;28;20526;-68
2022/07/19 02:48:56;;;;;;;10.20;7.28;;;18.20;99.90;;;;;;5056566;28;20044;-68
2022/07/19 02:51:25;;;;;;;10.77;7.20;;;18.20;99.90;;;;;;5065485;28;20037;-67
2022/07/19 02:53:54;;;;;;;13.10;7.03;;;18.20;99.90;;;;;;5063396;28;20040;-67
2022/07/19 02:56:20;;;;;;;10.15;7.03;;;18.20;99.90;;;;;;5062167;28;20041;-67
2022/07/19 02:58:48;;;;;;;14.60;7.20;;;18.10;99.90;;;;;;5066918;28;20036;-65
2022/07/19 03:01:14;;;;;;;13.25;7.65;;;18.20;99.90;;;;;;5056137;28;20076;-67
2022/07/19 03:03:50;;;;;;;13.60;7.13;;;18.20;99.90;;;;;;5067359;28;20076;-66
2022/07/19 03:06:17;;;;;;;13.07;7.40;;;18.10;99.90;;;;;;5050515;28;20059;-67
2022/07/19 03:08:44;;;;;;;11.52;7.75;;;18.10;99.90;;;;;;5065622;28;20053;-66
2022/07/19 03:11:10;;;;;;;13.77;7.82;;;18.10;99.90;;;;;;5064787;28;20506;-68
2022/07/19 03:13:42;;;;;;;16.05;7.93;;;18.10;99.90;;;;;;5064491;28;20072;-67
2022/07/19 03:16:08;;;;;;;15.43;7.93;;;18.10;99.90;;;;;;5057089;28;20037;-68
2022/07/19 03:18:33;;;;;;;12.63;7.22;;;18.10;99.90;;;;;;5048652;28;20097;-66
2022/07/19 03:21:00;;;;;;;13.68;7.82;;;18.10;99.90;;;;;;5066041;28;20044;-68
2022/07/19 03:23:27;;;;;;;15.43;7.70;;;18.10;99.90;;;;;;5057300;28;20548;-67
2022/07/19 03:25:53;;;;;;;14.60;7.70;;;18.10;99.90;;;;;;5058584;28;20510;-66
2022/07/19 03:28:19;;;;;;;13.95;7.20;;;18.10;99.90;;;;;;5065027;28;20091;-67
2022/07/19 03:30:45;;;;;;;12.10;7.53;;;18.00;99.90;;;;;;5057185;28;20059;-66
2022/07/19 03:33:11;;;;;;;12.82;8.30;;;18.00;99.90;;;;;;5066482;28;20040;-67
2022/07/19 03:35:36;;;;;;;12.13;8.25;;;18.00;99.90;;;;;;5070772;28;20085;-66
2022/07/19 03:38:02;;;;;;;13.95;8.30;;;18.00;99.90;;;;;;5066166;28;20410;-66
2022/07/19 03:40:28;;;;;;;15.98;8.05;;;18.00;99.90;;;;;;5060487;28;20033;-67
2022/07/19 03:42:54;;;;;;;17.38;8.60;;;18.00;99.90;;;;;;5053017;28;20036;-68
2022/07/19 03:45:19;;;;;;;13.30;8.02;;;18.00;99.90;;;;;;5059682;28;20048;-67
2022/07/19 03:47:45;;;;;;;12.70;8.05;;;18.00;99.90;;;;;;5067303;28;20040;-67
2022/07/19 03:50:14;;;;;;;14.70;8.35;;;18.00;99.90;;;;;;5067097;28;20087;-67
2022/07/19 03:52:42;;;;;;;19.48;8.52;;;18.00;99.90;;;;;;5073717;28;20041;-67
2022/07/19 03:55:08;;;;;;;11.63;7.70;;;18.00;99.90;;;;;;5048717;28;20442;-66
2022/07/19 03:57:34;;;;;;;15.93;8.00;;;18.10;99.90;;;;;;5069579;28;20502;-67
2022/07/19 04:00:00;;;;;;;14.73;8.00;;;18.10;99.90;;;;;;5073039;28;20037;-69
2022/07/19 04:02:26;;;;;;;16.27;8.20;;;18.10;99.90;;;;;;5068986;28;20044;-67
2022/07/19 04:04:51;;;;;;;24.20;9.23;;;18.10;99.90;;;;;;5072834;28;20047;-66
2022/07/19 04:07:20;;;;;;;17.27;8.10;;;18.10;99.90;;;;;;5069359;28;20203;-67
2022/07/19 04:09:46;;;;;;;13.07;7.85;;;18.10;99.90;;;;;;5066812;28;20151;-66
2022/07/19 04:12:12;;;;;;;16.60;8.20;;;18.10;99.90;;;;;;5065188;28;20055;-67
2022/07/19 04:14:37;;;;;;;12.45;7.95;;;18.10;99.90;;;;;;5063523;28;20410;-66
2022/07/19 04:17:04;;;;;;;15.20;8.30;;;18.10;99.90;;;;;;5067447;28;20044;-68
2022/07/19 04:19:30;;;;;;;17.42;8.88;;;18.20;99.90;;;;;;5068653;28;20115;-67
2022/07/19 04:21:56;;;;;;;13.50;8.13;;;18.20;99.90;;;;;;5070429;28;20048;-66
2022/07/19 04:24:22;;;;;;;13.32;9.05;;;18.20;99.90;;;;;;5068396;28;20033;-66
2022/07/19 04:26:48;;;;;;;16.65;9.13;;;18.20;99.90;;;;;;5066413;28;20052;-67
2022/07/19 04:29:14;;;;;;;14.20;8.52;;;18.30;99.90;;;;;;5060340;28;20048;-67
2022/07/19 04:31:40;;;;;;;14.15;8.40;;;18.30;99.90;;;;;;5069018;28;20040;-68
2022/07/19 04:34:05;;;;;;;15.98;8.48;;;18.40;99.90;;;;;;5069156;28;20045;-67
2022/07/19 04:36:31;;;;;;;13.73;8.38;;;18.40;99.90;;;;;;5067275;28;20102;-66
2022/07/19 04:38:57;;;;;;;17.40;8.90;;;18.40;99.90;;;;;;5070755;28;20043;-67
2022/07/19 04:41:23;;;;;;;17.67;8.13;;;18.50;99.90;;;;;;5060747;28;20096;-67
2022/07/19 04:43:49;;;;;;;16.08;8.60;;;18.50;99.90;;;;;;5059437;28;20115;-67
2022/07/19 04:46:16;;;;;;;16.85;8.50;;;18.60;99.90;;;;;;5070505;28;20040;-67
2022/07/19 04:48:41;;;;;;;18.05;8.70;;;18.60;99.90;;;;;;5069719;28;20182;-67
2022/07/19 04:51:07;;;;;;;18.40;9.40;;;18.60;99.90;;;;;;5067216;28;20593;-67
2022/07/19 04:53:33;;;;;;;21.23;9.57;;;18.60;99.90;;;;;;5066243;28;20371;-67
2022/07/19 04:55:59;;;;;;;14.18;8.38;;;18.70;99.90;;;;;;5064352;28;20167;-66
2022/07/19 04:58:25;;;;;;;21.55;9.07;;;18.80;99.90;;;;;;5062341;28;20115;-68
2022/07/19 05:00:51;;;;;;;18.83;8.80;;;18.80;99.90;;;;;;5046134;28;20044;-67
2022/07/19 05:03:19;;;;;;;18.23;8.65;;;18.90;99.90;;;;;;5061322;28;20033;-69
2022/07/19 05:05:45;;;;;;;15.35;8.98;;;18.90;99.90;;;;;;5067189;28;20137;-69
2022/07/19 05:08:14;;;;;;;15.23;8.55;;;19.00;99.90;;;;;;5038137;28;20452;-69
2022/07/19 05:10:40;;;;;;;17.98;8.65;;;19.10;99.90;;;;;;5065792;28;20036;-69
2022/07/19 05:13:05;;;;;;;19.48;8.07;;;19.20;99.90;;;;;;5060456;28;20055;-69
2022/07/19 05:15:31;;;;;;;17.75;7.82;;;19.20;99.90;;;;;;5065684;28;20074;-68
2022/07/19 05:17:57;;;;;;;13.57;7.07;;;19.30;99.90;;;;;;5069939;28;20049;-68
2022/07/19 05:20:22;;;;;;;15.52;8.13;;;19.30;99.90;;;;;;5067291;28;20051;-69
2022/07/19 05:22:49;;;;;;;12.43;7.15;;;19.40;99.90;;;;;;5065678;28;20095;-70
2022/07/19 05:27:56;;;;;;;18.80;7.38;;;19.50;99.90;;;;;;5082927;27;20869;-69
2022/07/19 05:30:22;;;;;;;13.77;7.37;;;19.60;99.90;;;;;;5083780;28;20482;-69
2022/07/19 05:32:48;;;;;;;17.60;8.68;;;19.60;99.90;;;;;;5087750;28;20815;-69
2022/07/19 05:35:17;;;;;;;13.13;7.40;;;19.70;99.90;;;;;;5081519;28;20405;-70
2022/07/19 05:37:43;;;;;;;14.50;7.68;;;19.80;99.90;;;;;;5082416;28;20109;-68
2022/07/19 05:40:09;;;;;;;13.02;7.72;;;19.90;99.90;;;;;;5084207;28;20067;-67
2022/07/19 05:42:35;;;;;;;15.75;7.45;;;20.00;99.90;;;;;;5073088;28;20083;-69
2022/07/19 05:45:01;;;;;;;15.38;7.40;;;20.10;99.90;;;;;;5083239;28;20072;-70
2022/07/19 05:47:27;;;;;;;14.10;7.50;;;20.20;99.90;;;;;;5074846;28;20055;-68
2022/07/19 05:49:52;;;;;;;14.43;7.05;;;20.30;99.90;;;;;;5079452;28;20036;-68
2022/07/19 05:52:18;;;;;;;18.83;7.40;;;20.40;99.90;;;;;;5071413;28;20124;-68
2022/07/19 05:54:44;;;;;;;17.30;7.15;;;20.50;99.90;;;;;;5085542;28;20036;-69
2022/07/19 05:57:12;;;;;;;19.80;7.22;;;20.60;99.90;;;;;;5089693;28;20067;-70
2022/07/19 05:59:38;;;;;;;23.48;7.45;;;20.70;99.90;;;;;;5071570;28;20096;-70
2022/07/19 06:02:04;;;;;;;22.83;6.90;;;20.80;99.90;;;;;;5079323;28;20036;-70
2022/07/19 06:04:30;;;;;;;14.90;6.78;;;20.90;99.90;;;;;;5089279;28;20048;-69
2022/07/19 06:06:56;;;;;;;12.65;6.57;;;21.00;99.90;;;;;;5069546;28;20106;-69
2022/07/19 06:09:21;;;;;;;23.02;7.43;;;21.20;99.90;;;;;;5085168;28;20074;-69
2022/07/19 06:11:47;;;;;;;11.68;7.03;;;21.30;99.90;;;;;;5068935;28;20552;-67
2022/07/19 06:14:13;;;;;;;15.70;6.43;;;21.40;99.90;;;;;;5075191;28;20056;-69
2022/07/19 06:16:41;;;;;;;11.20;6.75;;;21.50;99.90;;;;;;5075920;28;20037;-68
2022/07/19 06:19:08;;;;;;;21.92;6.38;;;21.60;99.90;;;;;;5086737;28;20056;-68
2022/07/19 06:21:34;;;;;;;15.20;6.32;;;21.80;99.90;;;;;;5063714;28;20040;-67
2022/07/19 06:24:00;;;;;;;18.83;7.32;;;21.90;99.90;;;;;;5083686;28;20048;-69
2022/07/19 06:26:26;;;;;;;13.07;6.05;;;22.00;99.90;;;;;;5084446;28;20052;-69
2022/07/19 06:28:53;;;;;;;12.10;6.15;;;22.10;99.90;;;;;;5084903;28;20048;-68
2022/07/19 06:31:19;;;;;;;16.95;6.32;;;22.20;99.90;;;;;;5066586;28;20045;-68
2022/07/19 06:33:50;;;;;;;15.70;6.72;;;22.30;99.90;;;;;;5087167;28;20048;-69
2022/07/19 06:36:17;;;;;;;12.50;6.10;;;22.40;99.90;;;;;;5088688;28;20421;-68
2022/07/19 06:38:43;;;;;;;12.50;6.37;;;22.50;99.90;;;;;;5074518;28;20045;-69
2022/07/19 06:41:12;;;;;;;14.55;6.35;;;22.60;99.90;;;;;;5067749;28;20040;-69
2022/07/19 06:43:39;;;;;;;20.15;6.38;;;22.80;99.90;;;;;;5075301;28;20124;-68
2022/07/19 06:46:06;;;;;;;12.77;5.93;;;22.90;99.90;;;;;;5061332;28;20403;-67
2022/07/19 06:48:32;;;;;;;18.17;6.57;;;23.00;99.90;;;;;;5064501;28;20529;-68
2022/07/19 06:50:58;;;;;;;12.70;5.50;;;23.10;99.90;;;;;;5055153;28;20040;-67
2022/07/19 06:53:24;;;;;;;13.63;5.78;;;23.20;99.90;;;;;;5055170;28;20059;-68
2022/07/19 06:55:51;;;;;;;11.23;6.20;;;23.30;99.90;;;;;;5064904;28;20044;-68
2022/07/19 06:58:17;;;;;;;10.57;5.72;;;23.40;99.70;;;;;;5067122;28;20045;-68
2022/07/19 07:00:43;;;;;;;10.32;5.20;;;23.60;99.60;;;;;;5056592;28;20059;-68
2022/07/19 07:03:12;;;;;;;12.98;5.55;;;23.70;99.60;;;;;;5064768;28;20558;-68
2022/07/19 07:05:38;;;;;;;12.27;5.43;;;23.80;99.00;;;;;;5054715;28;20471;-68
2022/07/19 07:08:04;;;;;;;12.60;5.68;;;24.00;98.80;;;;;;5064575;28;20043;-70
2022/07/19 07:10:29;;;;;;;11.02;5.40;;;24.00;98.60;;;;;;5063252;28;20470;-68
2022/07/19 07:12:56;;;;;;;11.55;5.63;;;24.20;98.00;;;;;;5072064;28;20040;-68
2022/07/19 07:15:24;;;;;;;15.52;4.70;;;24.20;97.70;;;;;;5055950;28;20035;-69
2022/07/19 07:17:50;;;;;;;10.02;5.15;;;24.30;97.60;;;;;;5057335;28;20049;-68
2022/07/19 07:20:16;;;;;;;12.05;5.30;;;24.40;97.60;;;;;;5054370;28;20089;-68
2022/07/19 07:22:42;;;;;;;11.25;5.57;;;24.40;97.50;;;;;;5054771;28;20270;-68
2022/07/19 07:25:08;;;;;;;10.88;5.07;;;24.50;97.30;;;;;;5071943;28;20097;-66
2022/07/19 07:27:34;;;;;;;9.77;4.97;;;24.60;97.60;;;;;;5072278;28;20571;-68
2022/07/19 07:29:59;;;;;;;15.38;5.53;;;24.70;97.10;;;;;;5061903;28;20044;-67
2022/07/19 07:32:26;;;;;;;9.98;4.78;;;24.80;96.90;;;;;;5057913;28;20158;-68
2022/07/19 07:34:53;;;;;;;10.60;4.80;;;24.90;96.80;;;;;;5074085;28;20517;-67
2022/07/19 07:37:19;;;;;;;8.80;5.32;;;25.00;96.50;;;;;;5072832;28;20784;-69
2022/07/19 07:39:45;;;;;;;6.57;4.22;;;25.20;96.20;;;;;;5061318;28;20071;-69
2022/07/19 07:42:11;;;;;;;11.25;5.18;;;25.30;96.00;;;;;;5062412;28;20128;-68
2022/07/19 07:44:36;;;;;;;8.90;4.57;;;25.50;95.60;;;;;;5071278;28;20144;-68
2022/07/19 07:47:02;;;;;;;7.47;4.20;;;25.60;95.50;;;;;;5036837;28;20073;-68
2022/07/19 07:49:30;;;;;;;10.52;4.72;;;25.80;95.20;;;;;;5054578;28;20124;-67
2022/07/19 07:51:55;;;;;;;9.18;4.30;;;25.90;95.00;;;;;;5052681;28;20491;-67
2022/07/19 07:54:21;;;;;;;6.90;3.88;;;26.10;94.90;;;;;;5055620;28;20192;-67
2022/07/19 07:56:53;;;;;;;8.38;4.55;;;26.30;94.80;;;;;;5064162;28;20041;-68
2022/07/19 07:59:21;;;;;;;8.75;4.22;;;26.50;94.40;;;;;;5071039;28;20041;-68
2022/07/19 08:01:47;;;;;;;9.90;3.97;;;26.60;93.70;;;;;;5072666;28;20041;-68
2022/07/19 08:04:13;;;;;;;10.18;4.30;;;26.70;94.00;;;;;;5053379;28;20041;-69
2022/07/19 08:06:41;;;;;;;7.00;3.75;;;27.00;93.80;;;;;;5068984;28;20127;-68
2022/07/19 08:09:08;;;;;;;7.43;4.45;;;27.10;93.30;;;;;;5072393;28;20122;-68
2022/07/19 08:11:33;;;;;;;8.82;4.15;;;27.20;92.80;;;;;;5051193;28;20068;-67
2022/07/19 08:13:59;;;;;;;8.15;4.00;;;27.30;92.40;;;;;;5071369;28;20047;-66
2022/07/19 08:16:28;;;;;;;12.30;4.05;;;27.40;91.90;;;;;;5058965;28;20136;-68
2022/07/19 08:18:55;;;;;;;8.70;4.00;;;27.50;92.40;;;;;;5058784;28;20132;-69
2022/07/19 08:21:21;;;;;;;13.13;4.13;;;27.70;92.10;;;;;;5052977;28;20049;-67
2022/07/19 08:23:47;;;;;;;9.95;4.13;;;27.90;92.30;;;;;;5052344;28;20122;-70
2022/07/19 08:26:16;;;;;;;7.80;3.88;;;28.10;92.30;;;;;;5070797;28;20139;-67
2022/07/19 08:28:41;;;;;;;9.73;3.67;;;28.20;91.50;;;;;;5071179;28;20123;-68
2022/07/19 08:31:08;;;;;;;14.48;3.67;;;28.30;91.60;;;;;;5063875;28;20032;-68
2022/07/19 08:33:34;;;;;;;9.90;3.67;;;28.50;91.00;;;;;;5057575;28;20045;-67
2022/07/19 08:36:00;;;;;;;32.95;5.60;;;28.70;91.00;;;;;;5058246;28;20055;-68
2022/07/19 08:38:25;;;;;;;9.23;4.15;;;28.70;90.40;;;;;;5071310;28;20066;-67
2022/07/19 08:40:53;;;;;;;9.18;3.92;;;28.90;90.20;;;;;;5071192;28;20076;-67
2022/07/19 08:43:21;;;;;;;10.65;3.70;;;29.10;90.00;;;;;;5070672;28;20316;-68
2022/07/19 08:45:47;;;;;;;11.05;3.97;;;29.20;88.80;;;;;;5064489;28;20049;-68
2022/07/19 08:48:13;;;;;;;11.02;3.65;;;29.30;87.40;;;;;;5057374;28;20513;-66
2022/07/19 08:50:46;;;;;;;9.18;3.70;;;29.40;86.10;;;;;;5071755;28;20072;-68
2022/07/19 08:53:15;;;;;;;14.60;4.13;;;29.60;85.70;;;;;;5058378;28;20412;-67
2022/07/19 08:55:44;;;;;;;12.07;3.88;;;29.70;85.10;;;;;;5052706;28;20124;-67
2022/07/19 08:58:09;;;;;;;12.02;4.03;;;29.90;85.00;;;;;;5061764;28;20045;-68
2022/07/19 09:00:35;;;;;;;13.75;3.95;;;30.00;84.20;;;;;;5053607;28;20491;-67
2022/07/19 09:03:04;;;;;;;7.25;3.50;;;30.10;84.30;;;;;;5071590;28;20063;-67
2022/07/19 09:05:33;;;;;;;8.23;3.63;;;30.20;83.10;;;;;;5056408;28;20406;-67
2022/07/19 09:08:03;;;;;;;9.20;3.38;;;30.40;82.50;;;;;;5042200;28;20036;-67
2022/07/19 09:10:29;;;;;;;8.15;3.13;;;30.40;81.90;;;;;;5071103;28;20052;-67
2022/07/19 09:13:14;;;;;;;9.05;3.00;;;30.60;81.70;;;;;;5066418;28;20485;-67
2022/07/19 09:15:51;;;;;;;10.65;3.33;;;30.70;82.00;;;;;;5068753;28;20040;-66
2022/07/19 09:18:28;;;;;;;6.97;3.30;;;30.90;82.00;;;;;;5065025;28;20044;-66
2022/07/19 09:20:56;;;;;;;9.05;3.00;;;31.00;80.30;;;;;;5059343;28;20049;-68
2022/07/19 09:23:23;;;;;;;10.82;3.08;;;31.20;79.70;;;;;;5066128;28;20068;-68
2022/07/19 09:26:08;;;;;;;6.72;3.40;;;31.20;78.50;;;;;;5070104;28;20390;-67
2022/07/19 09:28:35;;;;;;;8.93;3.58;;;31.30;79.50;;;;;;5066201;28;20056;-69
2022/07/19 09:31:03;;;;;;;17.60;3.67;;;31.50;78.20;;;;;;5053100;28;20041;-67
2022/07/19 09:33:31;;;;;;;7.03;2.92;;;31.60;77.40;;;;;;5051926;28;20045;-66
2022/07/19 09:36:01;;;;;;;5.55;3.15;;;31.60;77.10;;;;;;5071692;28;20044;-67
2022/07/19 09:38:32;;;;;;;6.25;3.00;;;31.80;76.10;;;;;;5069834;28;20068;-67
2022/07/19 09:41:06;;;;;;;9.32;3.45;;;31.80;76.40;;;;;;5065292;28;20398;-67
2022/07/19 09:43:55;;;;;;;8.60;3.35;;;31.90;75.00;;;;;;5059029;28;20131;-68
2022/07/19 09:46:44;;;;;;;7.60;3.20;;;32.10;75.00;;;;;;5068309;28;20052;-67
2022/07/19 09:49:18;;;;;;;11.05;3.80;;;32.10;75.20;;;;;;5058318;28;20399;-67
2022/07/19 09:51:46;;;;;;;10.45;3.22;;;32.30;74.20;;;;;;5054139;28;20049;-69
2022/07/19 09:54:14;;;;;;;6.75;3.47;;;32.40;74.90;;;;;;5071545;28;20128;-67
2022/07/19 09:56:45;;;;;;;8.52;3.30;;;32.50;74.10;;;;;;5071845;28;20049;-68
2022/07/19 09:59:11;;;;;;;6.57;3.50;;;32.60;74.00;;;;;;5062550;28;20164;-65
2022/07/19 10:01:38;;;;;;;9.40;2.95;;;32.70;72.40;;;;;;5070788;28;20040;-67
2022/07/19 10:04:13;;;;;;;5.15;2.95;;;32.80;72.90;;;;;;5053780;28;20118;-67
2022/07/19 10:06:40;;;;;;;9.32;2.80;;;32.90;71.10;;;;;;5069644;28;20503;-67
2022/07/19 10:09:08;;;;;;;9.52;2.67;;;33.00;70.80;;;;;;5047450;28;20613;-67
2022/07/19 10:11:37;;;;;;;7.53;2.80;;;33.10;70.40;;;;;;5050848;28;20041;-67
2022/07/19 10:14:05;;;;;;;6.05;2.83;;;33.10;69.00;;;;;;5042685;28;20045;-67
2022/07/19 10:16:46;;;;;;;10.13;3.40;;;33.20;69.20;;;;;;5057767;28;20045;-67
2022/07/19 10:19:39;;;;;;;8.80;2.60;;;33.30;69.30;;;;;;5074061;28;20067;-68
2022/07/19 10:22:17;;;;;;;13.63;3.03;;;33.50;66.60;;;;;;5055660;28;20116;-65
2022/07/19 10:25:04;;;;;;;6.13;2.75;;;33.50;67.40;;;;;;5060311;28;20500;-68
2022/07/19 10:27:30;;;;;;;7.68;2.85;;;33.80;67.10;;;;;;5073335;28;20449;-66
2022/07/19 10:30:11;;;;;;;9.33;2.93;;;33.90;66.70;;;;;;5067415;28;20049;-69
2022/07/19 10:32:38;;;;;;;5.45;2.80;;;33.90;66.40;;;;;;5037272;28;20143;-66
2022/07/19 10:35:26;;;;;;;6.28;3.10;;;34.10;66.30;;;;;;5055226;28;20639;-65
2022/07/19 10:38:03;;;;;;;10.15;3.38;;;34.20;65.40;;;;;;5063417;28;20345;-70
2022/07/19 10:40:48;;;;;;;4.47;2.35;;;34.20;65.80;;;;;;5074236;28;20040;-68
2022/07/19 10:43:15;;;;;;;6.72;2.95;;;34.30;64.60;;;;;;5065353;28;20372;-69
2022/07/19 10:45:42;;;;;;;;;;;34.50;65.30;;;;;;5067398;28;20055;-68
2022/07/19 10:48:14;;;;;;;9.47;3.07;;;34.70;64.00;;;;;;5074948;28;19924;-68
2022/07/19 10:50:53;;;;;;;6.20;2.60;;;34.90;63.90;;;;;;5074800;28;20566;-67
2022/07/19 10:53:41;;;;;;;6.32;2.42;;;35.00;60.90;;;;;;5064633;28;20549;-69
2022/07/19 10:56:21;;;;;;;5.90;2.38;;;35.10;60.60;;;;;;5064347;28;20052;-69
2022/07/19 10:58:48;;;;;;;10.40;2.53;;;35.10;61.20;;;;;;5060921;28;20429;-67
2022/07/19 11:01:17;;;;;;;5.22;2.35;;;35.30;62.00;;;;;;5070833;28;20072;-68
2022/07/19 11:03:43;;;;;;;6.20;2.17;;;35.40;61.90;;;;;;5073661;28;20123;-69
2022/07/19 11:06:18;;;;;;;6.07;2.20;;;35.40;60.70;;;;;;5074477;28;20139;-67
2022/07/19 11:08:46;;;;;;;9.27;2.40;;;35.60;59.90;;;;;;5057129;28;20040;-67
2022/07/19 11:11:15;;;;;;;6.32;2.33;;;35.60;58.80;;;;;;5072349;28;20115;-68
2022/07/19 11:14:03;;;;;;;8.70;2.47;;;35.70;58.70;;;;;;5067616;28;20037;-68
2022/07/19 11:16:29;;;;;;;5.50;2.13;;;35.80;57.80;;;;;;5071343;28;20123;-67
2022/07/19 11:19:05;;;;;;;5.60;2.40;;;35.90;58.50;;;;;;5055419;28;20602;-67
2022/07/19 11:21:36;;;;;;;5.90;3.37;;;36.10;56.90;;;;;;5052965;28;20317;-67
2022/07/19 11:24:04;;;;;;;3.60;2.28;;;36.10;57.50;;;;;;5054765;28;20408;-67
2022/07/19 11:26:39;;;;;;;15.82;2.67;;;36.10;57.00;;;;;;5073844;28;20056;-68
2022/07/19 11:29:05;;;;;;;5.20;2.30;;;36.20;56.70;;;;;;5049902;28;20040;-67
2022/07/19 11:31:32;;;;;;;7.13;2.50;;;36.30;55.80;;;;;;5054737;28;20045;-68
2022/07/19 11:34:00;;;;;;;5.25;2.33;;;36.40;55.60;;;;;;5052812;28;20499;-69
2022/07/19 11:36:27;;;;;;;8.50;2.95;;;36.50;55.60;;;;;;5054164;28;20387;-68
2022/07/19 11:38:55;;;;;;;5.85;2.30;;;36.50;55.50;;;;;;5036337;28;20056;-67
2022/07/19 11:41:23;;;;;;;5.00;2.25;;;36.60;55.00;;;;;;5054234;28;20041;-68
2022/07/19 11:44:03;;;;;;;8.52;2.15;;;36.70;54.30;;;;;;5060834;28;20040;-68
2022/07/19 11:46:37;;;;;;;6.90;2.53;;;36.50;53.60;;;;;;5061520;28;20437;-67
2022/07/19 11:49:05;;;;;;;6.13;2.70;;;36.70;54.10;;;;;;5053661;28;20051;-69
2022/07/19 11:51:31;;;;;;;8.57;2.67;;;36.70;54.40;;;;;;5052857;28;20386;-67
2022/07/19 11:53:58;;;;;;;6.72;1.95;;;36.80;54.30;;;;;;5053819;28;20444;-68
2022/07/19 11:56:33;;;;;;;7.30;2.42;;;36.90;53.50;;;;;;5052263;28;20091;-69
2022/07/19 11:59:07;;;;;;;6.03;2.25;;;36.90;53.80;;;;;;5058917;28;20086;-68
2022/07/19 12:01:35;;;;;;;6.15;2.20;;;37.00;54.20;;;;;;5067764;28;20049;-68
2022/07/19 12:04:18;;;;;;;7.00;2.42;;;37.00;53.90;;;;;;5053834;28;20068;-68
2022/07/19 12:06:46;;;;;;;8.52;2.30;;;36.80;53.20;;;;;;5035721;28;20110;-67
2022/07/19 12:09:22;;;;;;;4.43;2.17;;;36.80;53.30;;;;;;5052664;28;20131;-69
2022/07/19 12:11:53;;;;;;;6.35;2.35;;;36.80;52.80;;;;;;5068496;28;20045;-69
2022/07/19 12:14:27;;;;;;;5.30;2.40;;;36.90;54.30;;;;;;5070685;28;20498;-70
2022/07/19 12:17:16;;;;;;;4.53;2.10;;;36.90;52.80;;;;;;5066123;28;20102;-68
2022/07/19 12:19:44;;;;;;;5.00;2.22;;;37.00;52.90;;;;;;5051820;28;20052;-69
2022/07/19 12:22:38;;;;;;;6.25;2.30;;;36.90;52.60;;;;;;5060229;28;20045;-68
2022/07/19 12:25:06;;;;;;;7.90;2.35;;;37.00;53.50;;;;;;5073244;28;20104;-67
2022/07/19 12:27:32;;;;;;;5.97;2.20;;;36.90;52.50;;;;;;5072007;28;20048;-68
2022/07/19 12:29:59;;;;;;;6.80;2.10;;;37.00;52.90;;;;;;5053412;28;20075;-69
2022/07/19 12:32:37;;;;;;;6.60;2.25;;;37.00;52.60;;;;;;5067021;28;20033;-67
2022/07/19 12:35:11;;;;;;;18.75;3.40;;;37.00;51.20;;;;;;5051755;28;20053;-68
2022/07/19 12:37:45;;;;;;;8.10;2.38;;;37.00;52.40;;;;;;5052923;28;20567;-66
2022/07/19 12:40:17;;;;;;;7.50;2.50;;;37.00;51.70;;;;;;5051507;28;20389;-68
2022/07/19 12:43:06;;;;;;;10.10;2.42;;;37.10;52.10;;;;;;5052752;28;20041;-68
2022/07/19 12:45:46;;;;;;;7.43;2.45;;;37.20;51.30;;;;;;5066761;28;20432;-68
2022/07/19 12:48:14;;;;;;;7.00;2.10;;;37.20;51.20;;;;;;5065289;28;20099;-70